EGNJ - Humberside
Distance from station: E 5mi, 14km
Updated: 01/18/2018 9:50am
Partly Cloudy
Partly Cloudy
 Wind from SW
Wind: SW 9 mph , 15 km/h
Temperature: 37°F , 3°C
Wind Chill: 30°F , -1°C
Dew Point: 36°F , 2°C
Humidity: 93%
Barometer: 29.53 inHg , 1000 hPa
Clouds: Partly Cloudy
Visibility: 6 miles , 10 km
Cloud details: Few Clouds 2000 ft
Partly Cloudy 4000 ft
2018/01/18 17:50 EGNJ 181750Z 23008KT 9999 FEW020 SCT040 03/02 Q1000